»·PEaware :: AAL2189 KLAS-KPHX

AAL2189 :: KLAS-KPHX

FLIGHT INFORMATION

Flight Status: Arrived
Operator:
American Airlines
More flights by this operator :: More flights under this callsign
Pilot: Michael C. (16705)
Aircraft: BOEING 737-800
(B738)
More flights by this aircraft type
Origin: KLAS McCarran Intl
United States
Destination: KPHX Phoenix Sky Harbor Intl
United States
More flights between these airports :: More routes between these airports
Route: +PRFUM4 PRFUM WOTRO BRUSR1
File this flight plan on PilotEdge
Remarks: PBN / A1B1C1D1L1O1S1 NAV / RNVD1E2A1 DOF / 170919 REG / N838NN EET / KZAB0020 RVR / 200 PER / C
Altitude:
(Current/Filed)
350ft
Speed:
(Current/Filed)
461kts
Departed: 19-Sep-17 09:53 AM
Arrived: 19-Sep-17 10:37 AM
Distance/Time
Traveled:
222nm/0:43
Distance/Time
To Go:
Arrived

Flight Plot

Page will automatically refresh every two minutes.

Flight plan parsing failed; only flown route is shown


Map Options




Map Legend


Flown Route
Filed Route
Departure Airport
Arrival Airport
Navaid (VOR, NDB)
Fix

Horizontal Profiles

Position Reports

Time Latitude Longitude Heading Altitude Ground
Speed
19-Sep-17 09:31 36.080385 -115.134650 269 2189ft 0kts
19-Sep-17 09:32 36.080385 -115.134650 269 2189ft 0kts
19-Sep-17 09:33 36.080385 -115.134650 269 2189ft 0kts
19-Sep-17 09:34 36.080385 -115.134650 269 2189ft 0kts
19-Sep-17 09:35 36.080385 -115.134650 269 2189ft 0kts
19-Sep-17 09:36 36.080385 -115.134650 269 2189ft 0kts
19-Sep-17 09:37 36.080385 -115.134650 269 2189ft 0kts
19-Sep-17 09:38 36.080385 -115.134650 269 2189ft 0kts
19-Sep-17 09:39 36.080385 -115.134650 269 2189ft 0kts
19-Sep-17 09:40 36.080385 -115.134650 269 2189ft 0kts
19-Sep-17 09:41 36.080385 -115.134650 269 2189ft 0kts
19-Sep-17 09:42 36.080385 -115.134650 269 2189ft 0kts
19-Sep-17 09:43 36.080385 -115.134650 269 2189ft 0kts
19-Sep-17 09:44 36.080385 -115.134650 269 2189ft 0kts
19-Sep-17 09:45 36.080385 -115.134650 269 2189ft 0kts
19-Sep-17 09:46 36.080385 -115.133974 269 2189ft 2kts
19-Sep-17 09:47 36.080385 -115.133762 269 2189ft 0kts
19-Sep-17 09:48 36.080385 -115.133766 269 2189ft 0kts
19-Sep-17 09:49 36.080259 -115.133887 176 2189ft 0kts
19-Sep-17 09:50 36.079400 -115.133788 170 2189ft 3kts
19-Sep-17 09:51 36.078294 -115.133382 103 2189ft 6kts
19-Sep-17 09:52 36.078339 -115.129260 89 2189ft 16kts
19-Sep-17 09:53 36.078285 -115.124067 88 2189ft 12kts
19-Sep-17 09:54 36.077521 -115.121499 139 2189ft 0kts
19-Sep-17 09:55 36.077520 -115.121498 139 2189ft 0kts
19-Sep-17 09:56 36.076423 -115.121808 265 2189ft 10kts
19-Sep-17 09:57 36.076680 -115.154827 271 2671ft 173kts
19-Sep-17 09:58 36.077966 -115.218746 262 4976ft 223kts
19-Sep-17 09:59 36.035438 -115.273562 196 6907ft 250kts
19-Sep-17 10:00 35.964624 -115.295443 172 8516ft 281kts
19-Sep-17 10:01 35.885877 -115.267027 151 11211ft 320kts
19-Sep-17 10:02 35.841255 -115.160597 105 12273ft 403kts
19-Sep-17 10:03 35.825498 -115.018937 86 14318ft 429kts
19-Sep-17 10:04 35.836784 -114.869804 84 16385ft 445kts
19-Sep-17 10:05 35.848106 -114.715818 84 18307ft 458kts
19-Sep-17 10:06 35.835523 -114.559372 116 19934ft 470kts
19-Sep-17 10:07 35.763702 -114.423724 125 21439ft 480kts
19-Sep-17 10:08 35.689686 -114.284733 125 22787ft 492kts
19-Sep-17 10:09 35.613812 -114.142134 125 24006ft 503kts
19-Sep-17 10:10 35.536235 -113.997737 125 25172ft 511kts
19-Sep-17 10:11 35.457362 -113.851578 125 26236ft 518kts
19-Sep-17 10:12 35.376907 -113.703236 125 27241ft 525kts
19-Sep-17 10:13 35.296344 -113.554156 125 28507ft 524kts
19-Sep-17 10:14 35.216058 -113.407084 125 30342ft 509kts
19-Sep-17 10:15 35.138074 -113.272007 130 32978ft 478kts
19-Sep-17 10:16 35.054031 -113.145321 130 32474ft 486kts
19-Sep-17 10:17 34.968455 -113.015747 131 29570ft 498kts
19-Sep-17 10:18 34.879850 -112.880948 130 29206ft 517kts
19-Sep-17 10:19 34.790083 -112.745116 130 29140ft 515kts
19-Sep-17 10:20 34.702321 -112.612926 130 26436ft 504kts
19-Sep-17 10:21 34.614503 -112.480832 130 23379ft 494kts
19-Sep-17 10:22 34.530333 -112.355064 130 21516ft 458kts
19-Sep-17 10:23 34.452248 -112.246153 146 21088ft 399kts
19-Sep-17 10:24 34.352915 -112.205251 172 19551ft 376kts
19-Sep-17 10:25 34.252071 -112.179739 171 18017ft 365kts
19-Sep-17 10:26 34.156252 -112.155128 172 17265ft 334kts
19-Sep-17 10:27 34.066644 -112.138885 186 15891ft 316kts
19-Sep-17 10:28 33.981000 -112.148691 189 14220ft 302kts
19-Sep-17 10:29 33.899249 -112.158479 192 12566ft 288kts
19-Sep-17 10:30 33.828168 -112.173899 195 12173ft 232kts
19-Sep-17 10:31 33.765782 -112.187232 194 10864ft 241kts
19-Sep-17 10:32 33.696831 -112.201841 190 8580ft 260kts
19-Sep-17 10:33 33.625390 -112.216885 190 6688ft 250kts
19-Sep-17 10:34 33.563069 -112.230148 189 5605ft 209kts
19-Sep-17 10:35 33.510329 -112.241487 189 4613ft 180kts
19-Sep-17 10:36 33.461695 -112.248433 158 4023ft 177kts
19-Sep-17 10:37 33.440833 -112.197809 93 3898ft 188kts
19-Sep-17 10:38 33.440823 -112.147296 92 3089ft 167kts
19-Sep-17 10:39 33.440825 -112.088624 92 2153ft 141kts
19-Sep-17 10:40 33.440880 -112.040926 86 1391ft 146kts
19-Sep-17 10:41 33.440880 -112.011157 90 1143ft 26kts
19-Sep-17 10:42 33.440280 -112.007330 137 1143ft 0kts
19-Sep-17 10:43 33.440250 -112.007297 137 1143ft 0kts
19-Sep-17 10:44 33.439003 -112.006417 90 1143ft 12kts
19-Sep-17 10:45 33.438970 -112.002184 90 1143ft 14kts
19-Sep-17 10:46 33.438456 -111.999031 206 1143ft 4kts
19-Sep-17 10:47 33.438349 -111.999095 206 1143ft 0kts
19-Sep-17 10:48 33.438349 -111.999095 206 1143ft 0kts

Navigation Log

Ident Type
Flight plan parsing failed, navigation log unavailable